createdAt,value
2019-02-21T00:00:07.473Z,19.20
2019-02-21T00:02:36.696Z,19.20
2019-02-21T00:05:06.005Z,19.20
2019-02-21T00:07:35.204Z,19.20
2019-02-21T00:10:04.478Z,19.20
2019-02-21T00:12:33.623Z,19.20
2019-02-21T00:15:02.845Z,19.20
2019-02-21T00:17:31.986Z,19.20
2019-02-21T00:20:01.220Z,19.20
2019-02-21T00:22:30.408Z,19.20
2019-02-21T00:24:59.609Z,19.20
2019-02-21T00:27:28.813Z,19.20
2019-02-21T00:29:57.967Z,19.20
2019-02-21T00:32:27.166Z,19.20
2019-02-21T00:34:56.391Z,19.30
2019-02-21T00:37:25.601Z,19.20
2019-02-21T00:39:54.800Z,19.20
2019-02-21T00:42:24.018Z,19.30
2019-02-21T00:44:53.179Z,19.30
2019-02-21T00:47:22.417Z,19.30
2019-02-21T00:49:51.602Z,19.20
2019-02-21T00:52:21.166Z,19.30
2019-02-21T00:54:50.364Z,19.20
2019-02-21T00:57:19.540Z,19.30
2019-02-21T00:59:50.826Z,19.30
2019-02-21T01:02:19.609Z,19.30
2019-02-21T01:04:48.794Z,19.30
2019-02-21T01:07:18.014Z,19.30
2019-02-21T01:09:47.186Z,19.30
2019-02-21T01:12:16.585Z,19.30
2019-02-21T01:14:46.202Z,19.30
2019-02-21T01:17:15.382Z,19.30
2019-02-21T01:19:44.592Z,19.30
2019-02-21T01:22:13.834Z,19.30
2019-02-21T01:24:43.017Z,19.30
2019-02-21T01:27:12.215Z,19.30
2019-02-21T01:29:41.420Z,19.30
2019-02-21T01:32:10.595Z,19.30
2019-02-21T01:34:39.820Z,19.30
2019-02-21T01:37:09.338Z,19.30
2019-02-21T01:39:38.560Z,19.30
2019-02-21T01:42:07.742Z,19.30
2019-02-21T01:44:36.909Z,19.30
2019-02-21T01:47:06.129Z,19.30
2019-02-21T01:49:35.334Z,19.30
2019-02-21T01:52:04.543Z,19.30
2019-02-21T01:54:33.766Z,19.30
2019-02-21T01:57:02.960Z,19.30
2019-02-21T01:59:32.170Z,19.30
2019-02-21T02:02:01.389Z,19.30
2019-02-21T02:04:30.546Z,19.30
2019-02-21T02:07:00.291Z,19.30
2019-02-21T02:09:29.437Z,19.30
2019-02-21T02:11:58.631Z,19.30
2019-02-21T02:14:27.991Z,19.30
2019-02-21T02:16:57.160Z,19.30
2019-02-21T02:19:26.382Z,19.30
2019-02-21T02:21:55.566Z,19.30
2019-02-21T02:24:24.753Z,19.30
2019-02-21T02:26:53.983Z,19.30
2019-02-21T02:29:23.142Z,19.30
2019-02-21T02:31:52.349Z,19.30
2019-02-21T02:34:21.617Z,19.30
2019-02-21T02:36:50.789Z,19.30
2019-02-21T02:39:19.921Z,19.30
2019-02-21T02:41:49.137Z,19.30
2019-02-21T02:44:18.372Z,19.30
2019-02-21T02:46:47.590Z,19.30
2019-02-21T02:49:16.802Z,19.30
2019-02-21T02:51:46.033Z,19.30
2019-02-21T02:54:15.223Z,19.30
2019-02-21T02:56:44.381Z,19.30
2019-02-21T02:59:13.594Z,19.30
2019-02-21T03:01:42.793Z,19.30
2019-02-21T03:04:11.955Z,19.30
2019-02-21T03:06:41.204Z,19.30
2019-02-21T03:09:12.644Z,19.30
2019-02-21T03:11:41.871Z,19.30
2019-02-21T03:14:11.102Z,19.30
2019-02-21T03:16:40.326Z,19.30
2019-02-21T03:19:09.551Z,19.30
2019-02-21T03:21:38.742Z,19.30
2019-02-21T03:24:07.923Z,19.30
2019-02-21T03:26:37.140Z,19.30
2019-02-21T03:29:06.306Z,19.30
2019-02-21T03:31:52.772Z,19.30
2019-02-21T03:34:06.372Z,19.30
2019-02-21T03:36:35.567Z,19.30
2019-02-21T03:39:05.487Z,19.30
2019-02-21T03:41:34.710Z,19.30
2019-02-21T03:44:03.859Z,19.30
2019-02-21T03:46:33.085Z,19.30
2019-02-21T03:49:02.276Z,19.30
2019-02-21T03:51:31.471Z,19.30
2019-02-21T03:54:00.677Z,19.30
2019-02-21T03:56:29.855Z,19.30
2019-02-21T03:58:59.069Z,19.30
2019-02-21T04:01:28.269Z,19.30
2019-02-21T04:03:57.455Z,19.30
2019-02-21T04:06:26.656Z,19.30
2019-02-21T04:08:55.844Z,19.30
2019-02-21T04:11:25.066Z,19.30
2019-02-21T04:13:54.294Z,19.30
2019-02-21T04:16:23.462Z,19.30
2019-02-21T04:18:52.682Z,19.30
2019-02-21T04:21:21.878Z,19.30
2019-02-21T04:23:51.382Z,19.30
2019-02-21T04:26:20.581Z,19.30
2019-02-21T04:28:49.750Z,19.30
2019-02-21T04:31:19.036Z,19.30
2019-02-21T04:33:48.237Z,19.30
2019-02-21T04:36:17.395Z,19.30
2019-02-21T04:38:46.734Z,19.30
2019-02-21T04:41:15.990Z,19.30
2019-02-21T04:43:45.146Z,19.30
2019-02-21T04:46:14.358Z,19.30
2019-02-21T04:48:43.542Z,19.30
2019-02-21T04:51:12.765Z,19.30
2019-02-21T04:53:41.998Z,19.30
2019-02-21T04:56:11.206Z,19.30
2019-02-21T04:59:00.155Z,19.30
2019-02-21T05:01:29.372Z,19.30
2019-02-21T05:03:58.530Z,19.30
2019-02-21T05:06:27.737Z,19.30
2019-02-21T05:08:57.144Z,19.30
2019-02-21T05:11:26.951Z,19.30
2019-02-21T05:13:56.184Z,19.30
2019-02-21T05:16:25.413Z,19.30
2019-02-21T05:18:54.990Z,19.30
2019-02-21T05:21:24.259Z,19.30
2019-02-21T05:23:53.472Z,19.30
2019-02-21T05:26:28.597Z,19.30
2019-02-21T05:28:58.183Z,19.30
2019-02-21T05:31:45.558Z,19.30
2019-02-21T05:34:37.173Z,19.30
2019-02-21T05:37:17.038Z,19.40
2019-02-21T05:39:54.463Z,19.50
2019-02-21T05:42:39.879Z,19.70
2019-02-21T05:45:23.864Z,19.70
2019-02-21T05:48:12.037Z,19.80
2019-02-21T05:50:49.366Z,19.80
2019-02-21T05:53:25.382Z,19.80
2019-02-21T05:56:12.192Z,19.90
2019-02-21T05:58:59.208Z,19.90
2019-02-21T06:01:40.517Z,19.90
2019-02-21T06:04:31.778Z,19.90
2019-02-21T06:07:28.822Z,19.90
2019-02-21T06:10:23.417Z,19.90
2019-02-21T06:13:11.546Z,19.90
2019-02-21T06:16:04.661Z,19.80
2019-02-21T06:18:56.935Z,19.80
2019-02-21T06:21:51.079Z,19.80
2019-02-21T06:24:29.285Z,19.80
2019-02-21T06:27:06.206Z,19.80
2019-02-21T06:29:41.500Z,19.80
2019-02-21T06:32:14.183Z,19.70
2019-02-21T06:34:41.568Z,19.70
2019-02-21T06:37:12.725Z,19.70
2019-02-21T06:39:41.873Z,19.70
2019-02-21T06:42:11.351Z,19.70
2019-02-21T06:44:40.543Z,19.70
2019-02-21T06:47:09.761Z,19.70
2019-02-21T06:49:38.941Z,19.70
2019-02-21T06:52:08.140Z,19.70
2019-02-21T06:54:37.350Z,19.70
2019-02-21T06:57:06.566Z,19.70
2019-02-21T06:59:43.237Z,19.80
2019-02-21T07:02:06.626Z,19.80
2019-02-21T07:04:35.867Z,19.80
2019-02-21T07:07:05.083Z,19.80
2019-02-21T07:09:34.293Z,19.80
2019-02-21T07:12:03.478Z,19.80
2019-02-21T07:14:34.412Z,19.90
2019-02-21T07:17:03.856Z,19.90
2019-02-21T07:19:32.994Z,19.90
2019-02-21T07:22:02.225Z,19.90
2019-02-21T07:24:31.507Z,19.90
2019-02-21T07:27:00.687Z,19.90
2019-02-21T07:29:29.933Z,19.90
2019-02-21T07:31:59.115Z,19.90
2019-02-21T07:34:30.308Z,19.90
2019-02-21T07:36:59.173Z,19.90
2019-02-21T07:39:35.520Z,19.90
2019-02-21T07:41:59.231Z,19.90
2019-02-21T07:44:28.399Z,19.90
2019-02-21T07:46:57.590Z,19.90
2019-02-21T07:49:26.834Z,19.90
2019-02-21T07:51:56.006Z,19.90
2019-02-21T07:54:25.246Z,19.90
2019-02-21T07:56:54.442Z,19.90
2019-02-21T07:59:23.883Z,19.90
2019-02-21T08:01:53.114Z,19.90
2019-02-21T08:04:22.306Z,19.90
2019-02-21T08:06:51.479Z,19.80
2019-02-21T08:09:20.721Z,19.80
2019-02-21T08:11:50.174Z,19.80
2019-02-21T08:14:19.421Z,19.80
2019-02-21T08:16:48.605Z,19.80
2019-02-21T08:19:17.742Z,19.80
2019-02-21T08:21:47.073Z,19.80
2019-02-21T08:24:16.574Z,19.80
2019-02-21T08:26:45.759Z,19.80
2019-02-21T08:29:14.998Z,19.80
2019-02-21T08:31:44.170Z,19.80
2019-02-21T08:34:38.379Z,19.80
2019-02-21T08:37:08.797Z,19.90
2019-02-21T08:39:38.146Z,19.90
2019-02-21T08:42:07.412Z,19.90
2019-02-21T08:44:36.586Z,19.90
2019-02-21T08:47:05.801Z,19.90
2019-02-21T08:49:35.004Z,19.90
2019-02-21T08:52:04.165Z,19.90
2019-02-21T08:54:33.385Z,20.00
2019-02-21T08:57:02.610Z,20.00
2019-02-21T08:59:31.819Z,20.00
2019-02-21T09:02:01.043Z,20.00
2019-02-21T09:04:30.490Z,20.00
2019-02-21T09:06:59.679Z,20.00
2019-02-21T09:09:28.891Z,20.00
2019-02-21T09:11:58.070Z,20.00
2019-02-21T09:14:27.882Z,20.00
2019-02-21T09:16:57.122Z,19.90
2019-02-21T09:19:26.294Z,19.90
2019-02-21T09:21:55.525Z,19.90
2019-02-21T09:24:37.458Z,19.90
2019-02-21T09:26:57.084Z,19.90
2019-02-21T09:29:26.393Z,19.90
2019-02-21T09:31:55.590Z,19.90
2019-02-21T09:34:24.798Z,19.90
2019-02-21T09:36:54.001Z,19.90
2019-02-21T09:39:23.194Z,19.90
2019-02-21T09:41:52.352Z,19.90
2019-02-21T09:44:21.527Z,19.90
2019-02-21T09:46:50.727Z,19.90
2019-02-21T09:49:19.980Z,19.90
2019-02-21T09:51:49.247Z,19.90
2019-02-21T09:54:19.187Z,19.90
2019-02-21T09:56:52.695Z,19.90
2019-02-21T09:59:19.509Z,19.90
2019-02-21T10:01:48.718Z,19.90
2019-02-21T10:04:17.990Z,19.90
2019-02-21T10:06:47.191Z,19.90
2019-02-21T10:09:16.423Z,19.90
2019-02-21T10:11:45.583Z,19.80
2019-02-21T10:14:14.806Z,19.80
2019-02-21T10:16:43.996Z,19.80
2019-02-21T10:19:13.234Z,19.80
2019-02-21T10:21:42.405Z,19.80
2019-02-21T10:24:11.553Z,19.90
2019-02-21T10:26:40.749Z,19.90
2019-02-21T10:29:09.944Z,19.90
2019-02-21T10:31:39.135Z,19.90
2019-02-21T10:34:09.588Z,19.90
2019-02-21T10:36:39.094Z,19.90
2019-02-21T10:39:08.286Z,19.90
2019-02-21T10:41:37.819Z,19.80
2019-02-21T10:44:07.382Z,19.80
2019-02-21T10:46:36.566Z,19.90
2019-02-21T10:49:05.754Z,19.90
2019-02-21T10:51:34.926Z,19.90
2019-02-21T10:54:04.134Z,19.90
2019-02-21T10:56:33.585Z,19.90
2019-02-21T10:59:02.797Z,20.00
2019-02-21T11:01:32.878Z,20.00
2019-02-21T11:04:02.121Z,20.00
2019-02-21T11:06:31.353Z,20.00
2019-02-21T11:09:00.519Z,20.00
2019-02-21T11:11:29.721Z,20.00
2019-02-21T11:13:58.906Z,20.00
2019-02-21T11:16:28.091Z,20.10
2019-02-21T11:18:57.337Z,20.10
2019-02-21T11:21:26.514Z,20.10
2019-02-21T11:24:14.911Z,20.10
2019-02-21T11:26:44.118Z,20.10
2019-02-21T11:29:13.294Z,20.10
2019-02-21T11:31:42.508Z,20.10
2019-02-21T11:34:11.756Z,20.10
2019-02-21T11:36:40.874Z,20.10
2019-02-21T11:39:10.100Z,20.10
2019-02-21T11:41:39.278Z,20.00
2019-02-21T11:44:08.494Z,20.10
2019-02-21T11:46:37.719Z,20.10
2019-02-21T11:49:06.889Z,20.00
2019-02-21T11:51:36.087Z,20.00
2019-02-21T11:54:05.293Z,20.00
2019-02-21T11:56:34.507Z,20.00
2019-02-21T11:59:03.720Z,20.00
2019-02-21T12:01:32.918Z,20.00
2019-02-21T12:04:02.490Z,20.00
2019-02-21T12:06:31.676Z,20.00
2019-02-21T12:09:00.858Z,20.00
2019-02-21T12:11:30.065Z,20.00
2019-02-21T12:13:59.229Z,20.00
2019-02-21T12:16:28.436Z,20.00
2019-02-21T12:18:57.643Z,20.00
2019-02-21T12:21:26.873Z,19.90
2019-02-21T12:23:56.079Z,19.90
2019-02-21T12:26:25.297Z,19.90
2019-02-21T12:28:54.495Z,19.90
2019-02-21T12:31:23.673Z,19.90
2019-02-21T12:33:57.831Z,19.90
2019-02-21T12:36:27.023Z,19.90
2019-02-21T12:38:56.245Z,19.90
2019-02-21T12:41:25.413Z,19.90
2019-02-21T12:43:54.651Z,19.90
2019-02-21T12:46:23.835Z,19.90
2019-02-21T12:48:53.039Z,19.90
2019-02-21T12:51:22.266Z,19.90
2019-02-21T12:53:51.426Z,19.90
2019-02-21T12:56:20.646Z,19.90
2019-02-21T12:58:49.894Z,19.90
2019-02-21T13:01:19.091Z,19.90
2019-02-21T13:03:48.287Z,19.90
2019-02-21T13:06:17.527Z,20.00
2019-02-21T13:08:46.699Z,19.90
2019-02-21T13:11:15.914Z,19.90
2019-02-21T13:13:45.103Z,19.90
2019-02-21T13:16:14.275Z,19.90
2019-02-21T13:18:43.497Z,19.90
2019-02-21T13:21:13.034Z,19.90
2019-02-21T13:23:42.996Z,19.90
2019-02-21T13:26:12.365Z,19.90
2019-02-21T13:28:41.554Z,19.90
2019-02-21T13:31:10.873Z,19.90
2019-02-21T13:33:40.042Z,19.90
2019-02-21T13:36:09.630Z,19.90
2019-02-21T13:38:38.857Z,19.90
2019-02-21T13:41:08.034Z,19.90
2019-02-21T13:43:37.217Z,19.90
2019-02-21T13:46:06.438Z,19.90
2019-02-21T13:48:35.767Z,19.90
2019-02-21T13:51:04.922Z,19.90
2019-02-21T13:53:34.235Z,19.90
2019-02-21T13:56:03.337Z,19.90
2019-02-21T13:58:32.528Z,19.90
2019-02-21T14:01:01.714Z,19.90
2019-02-21T14:03:30.913Z,19.90
2019-02-21T14:06:03.525Z,19.90
2019-02-21T14:08:30.940Z,19.90
2019-02-21T14:11:00.346Z,19.90
2019-02-21T14:13:29.574Z,19.90
2019-02-21T14:15:58.802Z,19.90
2019-02-21T14:18:28.334Z,19.90
2019-02-21T14:20:57.530Z,19.90
2019-02-21T14:23:28.080Z,19.90
2019-02-21T14:25:57.681Z,19.90
2019-02-21T14:28:27.618Z,19.90
2019-02-21T14:30:56.829Z,19.90
2019-02-21T14:33:26.082Z,19.90
2019-02-21T14:35:55.274Z,19.90
2019-02-21T14:38:27.969Z,19.90
2019-02-21T14:40:55.622Z,19.90
2019-02-21T14:43:24.826Z,19.90
2019-02-21T14:45:54.014Z,19.90
2019-02-21T14:48:23.473Z,19.90
2019-02-21T14:50:52.675Z,19.90
2019-02-21T14:53:22.218Z,19.90
2019-02-21T14:55:51.385Z,19.90
2019-02-21T14:58:20.569Z,19.90
2019-02-21T15:00:49.770Z,19.90
2019-02-21T15:03:21.943Z,19.90
2019-02-21T15:05:49.853Z,19.90
2019-02-21T15:08:22.096Z,20.00
2019-02-21T15:10:52.674Z,19.90
2019-02-21T15:13:22.092Z,20.00
2019-02-21T15:15:51.287Z,20.00
2019-02-21T15:18:20.509Z,20.00
2019-02-21T15:20:49.695Z,20.00
2019-02-21T15:23:18.890Z,20.00
2019-02-21T15:25:48.082Z,19.90
2019-02-21T15:28:17.278Z,20.00
2019-02-21T15:30:46.523Z,20.00
2019-02-21T15:33:15.724Z,19.90
2019-02-21T15:35:44.954Z,20.00
2019-02-21T15:38:20.017Z,19.90
2019-02-21T15:40:44.990Z,19.90
2019-02-21T15:43:14.198Z,19.90
2019-02-21T15:45:43.713Z,19.90
2019-02-21T15:48:12.909Z,19.90
2019-02-21T15:50:42.093Z,19.90
2019-02-21T15:53:11.306Z,19.90
2019-02-21T15:55:40.487Z,19.90
2019-02-21T15:58:09.706Z,19.90
2019-02-21T16:00:38.916Z,19.90
2019-02-21T16:03:08.538Z,19.90
2019-02-21T16:05:37.753Z,19.90
2019-02-21T16:08:06.927Z,19.90
2019-02-21T16:10:36.433Z,19.90
2019-02-21T16:13:05.858Z,19.90
2019-02-21T16:15:35.534Z,19.90
2019-02-21T16:18:05.050Z,19.90
2019-02-21T16:20:34.715Z,19.80
2019-02-21T16:23:04.266Z,19.80
2019-02-21T16:25:33.463Z,19.80
2019-02-21T16:28:02.977Z,19.80
2019-02-21T16:30:32.129Z,19.80
2019-02-21T16:33:01.354Z,19.70
2019-02-21T16:35:30.572Z,19.70
2019-02-21T16:37:59.772Z,19.70
2019-02-21T16:40:28.948Z,19.70
2019-02-21T16:43:00.930Z,19.70
2019-02-21T16:45:42.452Z,19.70
2019-02-21T16:48:01.014Z,19.60
2019-02-21T16:50:30.363Z,19.60
2019-02-21T16:52:59.905Z,19.60
2019-02-21T16:55:29.117Z,19.60
2019-02-21T16:57:58.308Z,19.60
2019-02-21T17:00:42.198Z,19.60
2019-02-21T17:02:58.435Z,19.60
2019-02-21T17:05:27.761Z,19.50
2019-02-21T17:07:56.939Z,19.50
2019-02-21T17:10:26.158Z,19.50
2019-02-21T17:12:55.342Z,19.50
2019-02-21T17:15:24.506Z,19.50
2019-02-21T17:17:53.732Z,19.50
2019-02-21T17:20:22.954Z,19.50
2019-02-21T17:22:52.170Z,19.50
2019-02-21T17:25:21.378Z,19.50
2019-02-21T17:27:50.681Z,19.40
2019-02-21T17:30:19.898Z,19.40
2019-02-21T17:32:49.125Z,19.40
2019-02-21T17:35:18.352Z,19.40
2019-02-21T17:37:47.594Z,19.40
2019-02-21T17:40:18.403Z,19.40
2019-02-21T17:42:47.966Z,19.40
2019-02-21T17:45:17.188Z,19.40
2019-02-21T17:47:46.794Z,19.40
2019-02-21T17:50:16.157Z,19.30
2019-02-21T17:52:45.378Z,19.30
2019-02-21T17:55:14.605Z,19.30
2019-02-21T17:57:43.794Z,19.30
2019-02-21T18:00:20.573Z,19.30
2019-02-21T18:02:49.783Z,19.30
2019-02-21T18:05:19.314Z,19.30
2019-02-21T18:07:48.509Z,19.30
2019-02-21T18:10:17.718Z,19.30
2019-02-21T18:12:46.913Z,19.30
2019-02-21T18:15:16.558Z,19.30
2019-02-21T18:17:45.747Z,19.20
2019-02-21T18:20:14.947Z,19.20
2019-02-21T18:22:44.146Z,19.20
2019-02-21T18:25:16.630Z,19.20
2019-02-21T18:27:45.860Z,19.20
2019-02-21T18:30:15.414Z,19.20
2019-02-21T18:32:44.629Z,19.20
2019-02-21T18:35:13.891Z,19.20
2019-02-21T18:37:47.562Z,19.20
2019-02-21T18:40:18.374Z,19.20
2019-02-21T18:42:46.044Z,19.20
2019-02-21T18:45:17.386Z,19.20
2019-02-21T18:47:47.185Z,19.20
2019-02-21T18:50:16.424Z,19.20
2019-02-21T18:52:46.002Z,19.20
2019-02-21T18:55:15.221Z,19.20
2019-02-21T18:57:44.414Z,19.20
2019-02-21T19:00:15.033Z,19.30
2019-02-21T19:02:44.250Z,19.20
2019-02-21T19:05:13.496Z,19.20
2019-02-21T19:07:42.669Z,19.20
2019-02-21T19:10:13.539Z,19.20
2019-02-21T19:12:43.794Z,19.30
2019-02-21T19:15:16.085Z,19.20
2019-02-21T19:17:45.450Z,19.20
2019-02-21T19:20:14.788Z,19.20
2019-02-21T19:22:44.085Z,19.20
2019-02-21T19:25:13.850Z,19.20
2019-02-21T19:27:43.502Z,19.20
2019-02-21T19:30:22.590Z,19.20
2019-02-21T19:32:53.601Z,19.30
2019-02-21T19:35:23.285Z,19.30
2019-02-21T19:37:52.565Z,19.20
2019-02-21T19:40:24.416Z,19.30
2019-02-21T19:42:55.814Z,19.30
2019-02-21T19:45:26.427Z,19.30
2019-02-21T19:47:55.714Z,19.30
2019-02-21T19:50:26.044Z,19.30
2019-02-21T19:52:56.516Z,19.30
2019-02-21T19:55:29.707Z,19.30
2019-02-21T19:57:58.727Z,19.30
2019-02-21T20:00:29.744Z,19.30
2019-02-21T20:02:59.039Z,19.30
2019-02-21T20:05:28.642Z,19.30
2019-02-21T20:08:08.198Z,19.30
2019-02-21T20:10:28.993Z,19.30
2019-02-21T20:13:01.173Z,19.40
2019-02-21T20:15:34.288Z,19.40
2019-02-21T20:18:03.481Z,19.40
2019-02-21T20:20:32.804Z,19.40
2019-02-21T20:23:02.054Z,19.40
2019-02-21T20:25:31.421Z,19.40
2019-02-21T20:28:02.297Z,19.40
2019-02-21T20:30:31.680Z,19.40
2019-02-21T20:33:00.947Z,19.40
2019-02-21T20:35:30.170Z,19.40
2019-02-21T20:38:00.288Z,19.30
2019-02-21T20:40:29.563Z,19.40
2019-02-21T20:42:58.783Z,19.30
2019-02-21T20:45:28.076Z,19.30
2019-02-21T20:47:57.306Z,19.30
2019-02-21T20:50:27.262Z,19.30
2019-02-21T20:52:57.199Z,19.30
2019-02-21T20:55:26.740Z,19.30
2019-02-21T20:57:56.723Z,19.30
2019-02-21T21:00:26.272Z,19.30
2019-02-21T21:02:55.482Z,19.30
2019-02-21T21:05:24.716Z,19.30
2019-02-21T21:07:54.390Z,19.30
2019-02-21T21:10:23.591Z,19.30
2019-02-21T21:12:52.813Z,19.30
2019-02-21T21:15:21.997Z,19.30
2019-02-21T21:17:51.315Z,19.30
2019-02-21T21:20:20.510Z,19.30
2019-02-21T21:22:49.730Z,19.30
2019-02-21T21:25:18.970Z,19.30
2019-02-21T21:27:48.171Z,19.30
2019-02-21T21:30:29.401Z,19.30
2019-02-21T21:32:58.613Z,19.30
2019-02-21T21:35:27.842Z,19.30
2019-02-21T21:37:57.063Z,19.30
2019-02-21T21:40:26.642Z,19.30
2019-02-21T21:42:55.847Z,19.30
2019-02-21T21:45:30.081Z,19.30
2019-02-21T21:47:59.309Z,19.30
2019-02-21T21:50:28.536Z,19.30
2019-02-21T21:52:59.753Z,19.30
2019-02-21T21:55:28.609Z,19.20
2019-02-21T21:57:57.762Z,19.20
2019-02-21T22:00:27.781Z,19.20
2019-02-21T22:02:56.965Z,19.30
2019-02-21T22:05:26.135Z,19.20
2019-02-21T22:07:55.329Z,19.20
2019-02-21T22:10:24.539Z,19.30
2019-02-21T22:12:54.101Z,19.20
2019-02-21T22:15:23.324Z,19.20
2019-02-21T22:17:52.623Z,19.20
2019-02-21T22:20:21.858Z,19.20
2019-02-21T22:22:51.062Z,19.20
2019-02-21T22:25:20.236Z,19.20
2019-02-21T22:27:49.493Z,19.20
2019-02-21T22:30:18.699Z,19.20
2019-02-21T22:32:47.907Z,19.20
2019-02-21T22:35:17.143Z,19.20
2019-02-21T22:37:46.717Z,19.20
2019-02-21T22:40:16.001Z,19.20
2019-02-21T22:42:45.210Z,19.20
2019-02-21T22:45:14.385Z,19.20
2019-02-21T22:47:43.921Z,19.30
2019-02-21T22:50:14.428Z,19.20
2019-02-21T22:52:43.644Z,19.30
2019-02-21T22:55:12.842Z,19.20
2019-02-21T22:57:42.062Z,19.20
2019-02-21T23:01:04.079Z,19.20
2019-02-21T23:03:52.730Z,19.20
2019-02-21T23:06:49.446Z,19.20
2019-02-21T23:09:27.635Z,19.20
2019-02-21T23:11:52.081Z,19.20
2019-02-21T23:14:21.290Z,19.20
2019-02-21T23:16:50.510Z,19.20
2019-02-21T23:19:19.717Z,19.20
2019-02-21T23:21:49.040Z,19.20
2019-02-21T23:24:18.176Z,19.30
2019-02-21T23:26:47.399Z,19.30
2019-02-21T23:29:23.403Z,19.30
2019-02-21T23:31:52.629Z,19.30
2019-02-21T23:34:37.514Z,19.40
2019-02-21T23:37:06.722Z,19.40
2019-02-21T23:39:38.631Z,19.40
2019-02-21T23:42:06.779Z,19.40
2019-02-21T23:44:35.996Z,19.40
2019-02-21T23:47:05.193Z,19.40
2019-02-21T23:49:34.404Z,19.50
2019-02-21T23:52:03.600Z,19.50
2019-02-21T23:54:32.799Z,19.50
2019-02-21T23:57:01.982Z,19.50
2019-02-21T23:59:31.206Z,19.50
